createdAt,value
2023-10-22T00:00:49.795Z,96115.00
2023-10-22T00:03:16.814Z,96122.00
2023-10-22T00:05:43.842Z,96121.00
2023-10-22T00:08:10.981Z,96120.00
2023-10-22T00:10:38.142Z,96115.00
2023-10-22T00:13:05.012Z,96118.00
2023-10-22T00:15:31.825Z,96120.00
2023-10-22T00:17:59.371Z,96129.00
2023-10-22T00:20:26.392Z,96124.00
2023-10-22T00:22:53.243Z,96119.00
2023-10-22T00:25:20.093Z,96122.00
2023-10-22T00:27:47.368Z,96121.00
2023-10-22T00:30:14.926Z,96113.00
2023-10-22T00:32:42.181Z,96126.00
2023-10-22T00:35:09.163Z,96145.00
2023-10-22T00:37:36.015Z,96130.00
2023-10-22T00:40:04.314Z,96151.00
2023-10-22T00:42:31.272Z,96148.00
2023-10-22T00:44:58.412Z,96147.00
2023-10-22T00:47:25.908Z,96134.00
2023-10-22T00:49:52.808Z,96140.00
2023-10-22T00:52:21.608Z,96139.00
2023-10-22T00:54:48.858Z,96154.00
2023-10-22T00:57:16.509Z,96143.00
2023-10-22T00:59:43.874Z,96146.00
2023-10-22T01:02:11.564Z,96148.00
2023-10-22T01:04:38.730Z,96159.00
2023-10-22T01:07:07.474Z,96159.00
2023-10-22T01:09:35.077Z,96151.00
2023-10-22T01:12:05.462Z,96163.00
2023-10-22T01:14:33.160Z,96164.00
2023-10-22T01:17:01.470Z,96161.00
2023-10-22T01:19:28.375Z,96158.00
2023-10-22T01:21:55.415Z,96167.00
2023-10-22T01:24:22.316Z,96153.00
2023-10-22T01:26:49.309Z,96157.00
2023-10-22T01:29:16.223Z,96168.00
2023-10-22T01:31:43.155Z,96183.00
2023-10-22T01:34:10.023Z,96163.00
2023-10-22T01:36:36.852Z,96169.00
2023-10-22T01:39:04.041Z,96171.00
2023-10-22T01:41:30.973Z,96174.00
2023-10-22T01:43:59.465Z,96155.00
2023-10-22T01:46:26.723Z,96172.00
2023-10-22T01:48:53.728Z,96171.00
2023-10-22T01:51:20.571Z,96166.00
2023-10-22T01:53:47.802Z,96179.00
2023-10-22T01:56:15.648Z,96170.00
2023-10-22T01:58:44.845Z,96171.00
2023-10-22T02:01:12.012Z,96161.00
2023-10-22T02:03:39.054Z,96174.00
2023-10-22T02:06:13.216Z,96177.00
2023-10-22T02:08:41.815Z,96178.00
2023-10-22T02:11:09.159Z,96176.00
2023-10-22T02:13:36.269Z,96189.00
2023-10-22T02:16:03.305Z,96166.00
2023-10-22T02:18:30.333Z,96187.00
2023-10-22T02:21:01.542Z,96190.00
2023-10-22T02:23:29.058Z,96187.00
2023-10-22T02:25:56.326Z,96186.00
2023-10-22T02:28:23.319Z,96192.00
2023-10-22T02:30:50.311Z,96201.00
2023-10-22T02:33:18.604Z,96186.00
2023-10-22T02:35:47.445Z,96182.00
2023-10-22T02:38:17.700Z,96190.00
2023-10-22T02:40:49.580Z,96184.00
2023-10-22T02:43:17.457Z,96183.00
2023-10-22T02:45:55.701Z,96190.00
2023-10-22T02:48:26.649Z,96191.00
2023-10-22T02:50:53.806Z,96205.00
2023-10-22T02:53:20.722Z,96191.00
2023-10-22T02:55:47.592Z,96209.00
2023-10-22T02:58:14.525Z,96210.00
2023-10-22T03:00:41.704Z,96202.00
2023-10-22T03:03:09.032Z,96202.00
2023-10-22T03:05:37.623Z,96209.00
2023-10-22T03:08:05.139Z,96217.00
2023-10-22T03:10:32.201Z,96217.00
2023-10-22T03:13:00.883Z,96233.00
2023-10-22T03:15:28.693Z,96222.00
2023-10-22T03:17:58.082Z,96218.00
2023-10-22T03:20:26.084Z,96228.00
2023-10-22T03:22:54.596Z,96217.00
2023-10-22T03:25:24.715Z,96216.00
2023-10-22T03:27:51.630Z,96219.00
2023-10-22T03:30:18.920Z,96219.00
2023-10-22T03:32:46.422Z,96230.00
2023-10-22T03:35:14.194Z,96223.00
2023-10-22T03:37:42.254Z,96235.00
2023-10-22T03:40:12.761Z,96223.00
2023-10-22T03:42:40.135Z,96218.00
2023-10-22T03:45:08.300Z,96245.00
2023-10-22T03:47:35.395Z,96232.00
2023-10-22T03:50:02.886Z,96241.00
2023-10-22T03:52:30.625Z,96239.00
2023-10-22T03:54:58.468Z,96244.00
2023-10-22T03:57:26.268Z,96244.00
2023-10-22T03:59:53.354Z,96248.00
2023-10-22T04:02:20.295Z,96238.00
2023-10-22T04:04:47.233Z,96251.00
2023-10-22T04:07:14.134Z,96255.00
2023-10-22T04:09:41.243Z,96252.00
2023-10-22T04:12:09.291Z,96253.00
2023-10-22T04:14:36.866Z,96260.00
2023-10-22T04:17:04.438Z,96267.00
2023-10-22T04:19:31.441Z,96268.00
2023-10-22T04:21:58.612Z,96285.00
2023-10-22T04:24:25.523Z,96273.00
2023-10-22T04:26:52.548Z,96280.00
2023-10-22T04:29:19.417Z,96274.00
2023-10-22T04:31:46.585Z,96294.00
2023-10-22T04:34:13.532Z,96282.00
2023-10-22T04:36:40.555Z,96287.00
2023-10-22T04:39:07.449Z,96288.00
2023-10-22T04:41:34.365Z,96303.00
2023-10-22T04:44:01.276Z,96312.00
2023-10-22T04:46:28.205Z,96298.00
2023-10-22T04:48:55.482Z,96302.00
2023-10-22T04:51:22.917Z,96310.00
2023-10-22T04:53:50.240Z,96325.00
2023-10-22T04:56:17.256Z,96311.00
2023-10-22T04:58:44.177Z,96335.00
2023-10-22T05:01:12.413Z,96331.00
2023-10-22T05:03:40.352Z,96332.00
2023-10-22T05:06:10.663Z,96332.00
2023-10-22T05:08:39.668Z,96338.00
2023-10-22T05:11:07.333Z,96342.00
2023-10-22T05:13:34.480Z,96332.00
2023-10-22T05:16:01.766Z,96334.00
2023-10-22T05:18:28.873Z,96336.00
2023-10-22T05:21:03.600Z,96346.00
2023-10-22T05:23:30.579Z,96347.00
2023-10-22T05:26:23.600Z,96359.00
2023-10-22T05:28:50.516Z,96366.00
2023-10-22T05:31:20.326Z,96364.00
2023-10-22T05:33:48.145Z,96376.00
2023-10-22T05:36:22.940Z,96368.00
2023-10-22T05:38:50.657Z,96366.00
2023-10-22T05:41:25.093Z,96372.00
2023-10-22T05:44:00.057Z,96381.00
2023-10-22T05:46:28.126Z,96382.00
2023-10-22T05:48:55.517Z,96388.00
2023-10-22T05:51:22.851Z,96383.00
2023-10-22T05:53:49.760Z,96399.00
2023-10-22T05:56:17.274Z,96398.00
2023-10-22T05:58:44.439Z,96396.00
2023-10-22T06:01:12.016Z,96399.00
2023-10-22T06:03:39.401Z,96390.00
2023-10-22T06:06:06.442Z,96408.00
2023-10-22T06:08:33.344Z,96425.00
2023-10-22T06:11:05.633Z,96410.00
2023-10-22T06:13:33.237Z,96419.00
2023-10-22T06:16:00.419Z,96411.00
2023-10-22T06:18:30.213Z,96420.00
2023-10-22T06:20:59.640Z,96419.00
2023-10-22T06:23:26.505Z,96436.00
2023-10-22T06:25:53.383Z,96437.00
2023-10-22T06:28:20.345Z,96436.00
2023-10-22T06:30:49.752Z,96431.00
2023-10-22T06:33:16.850Z,96445.00
2023-10-22T06:35:43.768Z,96439.00
2023-10-22T06:38:11.323Z,96437.00
2023-10-22T06:40:38.173Z,96454.00
2023-10-22T06:43:05.778Z,96469.00
2023-10-22T06:45:37.030Z,96471.00
2023-10-22T06:48:04.263Z,96456.00
2023-10-22T06:50:31.438Z,96459.00
2023-10-22T06:52:58.239Z,96464.00
2023-10-22T06:55:25.106Z,96483.00
2023-10-22T06:57:52.048Z,96474.00
2023-10-22T07:00:19.435Z,96479.00
2023-10-22T07:02:47.434Z,96467.00
2023-10-22T07:05:14.409Z,96476.00
2023-10-22T07:07:43.035Z,96487.00
2023-10-22T07:10:10.982Z,96479.00
2023-10-22T07:12:37.909Z,96487.00
2023-10-22T07:15:06.094Z,96494.00
2023-10-22T07:17:33.096Z,96507.00
2023-10-22T07:20:00.002Z,96499.00
2023-10-22T07:22:26.916Z,96495.00
2023-10-22T07:24:53.788Z,96500.00
2023-10-22T07:27:20.721Z,96505.00
2023-10-22T07:29:47.722Z,96508.00
2023-10-22T07:32:14.617Z,96506.00
2023-10-22T07:34:41.483Z,96509.00
2023-10-22T07:37:08.451Z,96513.00
2023-10-22T07:39:35.384Z,96526.00
2023-10-22T07:42:02.495Z,96520.00
2023-10-22T07:44:29.416Z,96527.00
2023-10-22T07:46:56.374Z,96526.00
2023-10-22T07:49:23.363Z,96523.00
2023-10-22T07:51:52.804Z,96525.00
2023-10-22T07:54:20.038Z,96533.00
2023-10-22T07:56:47.002Z,96527.00
2023-10-22T07:59:13.940Z,96524.00
2023-10-22T08:01:40.827Z,96535.00
2023-10-22T08:04:08.642Z,96539.00
2023-10-22T08:06:35.576Z,96545.00
2023-10-22T08:09:02.684Z,96551.00
2023-10-22T08:11:29.675Z,96541.00
2023-10-22T08:13:56.547Z,96556.00
2023-10-22T08:16:23.435Z,96547.00
2023-10-22T08:18:50.622Z,96550.00
2023-10-22T08:21:18.296Z,96558.00
2023-10-22T08:23:45.368Z,96567.00
2023-10-22T08:26:12.468Z,96566.00
2023-10-22T08:28:39.350Z,96578.00
2023-10-22T08:31:06.275Z,96580.00
2023-10-22T08:33:33.249Z,96568.00
2023-10-22T08:36:08.613Z,96568.00
2023-10-22T08:38:35.600Z,96570.00
2023-10-22T08:41:03.591Z,96580.00
2023-10-22T08:43:33.721Z,96586.00
2023-10-22T08:46:02.474Z,96584.00
2023-10-22T08:48:33.863Z,96583.00
2023-10-22T08:51:02.496Z,96595.00
2023-10-22T08:53:29.594Z,96588.00
2023-10-22T08:55:57.785Z,96601.00
2023-10-22T08:58:24.760Z,96605.00
2023-10-22T09:00:51.748Z,96599.00
2023-10-22T09:03:21.509Z,96610.00
2023-10-22T09:05:49.456Z,96626.00
2023-10-22T09:08:16.909Z,96612.00
2023-10-22T09:10:44.292Z,96627.00
2023-10-22T09:13:11.167Z,96632.00
2023-10-22T09:15:49.369Z,96624.00
2023-10-22T09:18:18.338Z,96615.00
2023-10-22T09:20:46.528Z,96630.00
2023-10-22T09:23:24.751Z,96625.00
2023-10-22T09:25:56.896Z,96625.00
2023-10-22T09:28:26.479Z,96627.00
2023-10-22T09:30:59.695Z,96645.00
2023-10-22T09:33:41.166Z,96637.00
2023-10-22T09:36:12.490Z,96650.00
2023-10-22T09:38:49.336Z,96642.00
2023-10-22T09:41:29.888Z,96640.00
2023-10-22T09:44:02.180Z,96648.00
2023-10-22T09:46:34.888Z,96648.00
2023-10-22T09:49:08.689Z,96658.00
2023-10-22T09:51:37.073Z,96646.00
2023-10-22T09:54:07.934Z,96655.00
2023-10-22T09:56:53.268Z,96663.00
2023-10-22T09:59:23.588Z,96662.00
2023-10-22T10:01:51.700Z,96660.00
2023-10-22T10:04:20.748Z,96662.00
2023-10-22T10:06:48.801Z,96668.00
2023-10-22T10:09:17.546Z,96672.00
2023-10-22T10:11:45.031Z,96658.00
2023-10-22T10:14:33.593Z,96683.00
2023-10-22T10:17:03.600Z,96669.00
2023-10-22T10:19:30.917Z,96667.00
2023-10-22T10:21:58.363Z,96673.00
2023-10-22T10:24:27.292Z,96678.00
2023-10-22T10:26:59.786Z,96677.00
2023-10-22T10:29:35.206Z,96681.00
2023-10-22T10:32:14.165Z,96683.00
2023-10-22T10:34:46.277Z,96684.00
2023-10-22T10:37:19.638Z,96679.00
2023-10-22T10:39:58.834Z,96697.00
2023-10-22T10:42:32.102Z,96692.00
2023-10-22T10:44:59.007Z,96693.00
2023-10-22T10:47:26.083Z,96678.00
2023-10-22T10:50:07.464Z,96708.00
2023-10-22T10:52:43.598Z,96705.00
2023-10-22T10:55:16.885Z,96703.00
2023-10-22T10:57:46.411Z,96710.00
2023-10-22T11:00:29.407Z,96700.00
2023-10-22T11:03:00.358Z,96706.00
2023-10-22T11:05:45.795Z,96701.00
2023-10-22T11:08:23.258Z,96713.00
2023-10-22T11:10:50.890Z,96700.00
2023-10-22T11:13:27.812Z,96704.00
2023-10-22T11:16:04.646Z,96708.00
2023-10-22T11:18:31.609Z,96724.00
2023-10-22T11:20:58.599Z,96719.00
2023-10-22T11:23:26.026Z,96710.00
2023-10-22T11:25:53.168Z,96712.00
2023-10-22T11:28:20.138Z,96710.00
2023-10-22T11:30:47.011Z,96710.00
2023-10-22T11:33:30.386Z,96709.00
2023-10-22T11:35:57.687Z,96726.00
2023-10-22T11:38:25.113Z,96721.00
2023-10-22T11:40:56.631Z,96714.00
2023-10-22T11:43:25.666Z,96725.00
2023-10-22T11:45:57.597Z,96727.00
2023-10-22T11:48:27.821Z,96729.00
2023-10-22T11:51:01.827Z,96732.00
2023-10-22T11:53:41.593Z,96733.00
2023-10-22T11:56:08.494Z,96746.00
2023-10-22T11:58:35.413Z,96729.00
2023-10-22T12:01:03.415Z,96733.00
2023-10-22T12:03:30.338Z,96739.00
2023-10-22T12:05:58.014Z,96743.00
2023-10-22T12:08:24.993Z,96741.00
2023-10-22T12:10:51.866Z,96741.00
2023-10-22T12:13:18.830Z,96740.00
2023-10-22T12:15:45.713Z,96752.00
2023-10-22T12:18:12.718Z,96752.00
2023-10-22T12:20:39.676Z,96754.00
2023-10-22T12:23:06.571Z,96761.00
2023-10-22T12:25:33.725Z,96756.00
2023-10-22T12:28:00.764Z,96765.00
2023-10-22T12:30:28.271Z,96749.00
2023-10-22T12:32:55.725Z,96760.00
2023-10-22T12:35:24.238Z,96772.00
2023-10-22T12:37:52.513Z,96778.00
2023-10-22T12:40:19.622Z,96773.00
2023-10-22T12:42:46.661Z,96775.00
2023-10-22T12:45:14.200Z,96778.00
2023-10-22T12:47:41.646Z,96773.00
2023-10-22T12:50:09.420Z,96790.00
2023-10-22T12:52:45.192Z,96780.00
2023-10-22T12:55:12.353Z,96780.00
2023-10-22T12:57:39.415Z,96792.00
2023-10-22T13:00:12.030Z,96790.00
2023-10-22T13:02:39.462Z,96785.00
2023-10-22T13:05:08.863Z,96789.00
2023-10-22T13:07:37.580Z,96809.00
2023-10-22T13:10:05.977Z,96803.00
2023-10-22T13:12:33.300Z,96799.00
2023-10-22T13:15:00.261Z,96810.00
2023-10-22T13:17:27.268Z,96806.00
2023-10-22T13:19:54.481Z,96805.00
2023-10-22T13:22:21.370Z,96809.00
2023-10-22T13:24:49.177Z,96811.00
2023-10-22T13:27:16.240Z,96819.00
2023-10-22T13:29:43.267Z,96831.00
2023-10-22T13:32:10.236Z,96822.00
2023-10-22T13:34:37.350Z,96824.00
2023-10-22T13:37:05.201Z,96830.00
2023-10-22T13:39:32.143Z,96830.00
2023-10-22T13:41:59.167Z,96839.00
2023-10-22T13:44:26.084Z,96833.00
2023-10-22T13:46:52.966Z,96839.00
2023-10-22T13:49:19.806Z,96836.00
2023-10-22T13:51:47.132Z,96850.00
2023-10-22T13:54:14.110Z,96851.00
2023-10-22T13:56:40.966Z,96845.00
2023-10-22T13:59:10.054Z,96864.00
2023-10-22T14:01:37.000Z,96855.00
2023-10-22T14:04:04.222Z,96871.00
2023-10-22T14:06:31.381Z,96857.00
2023-10-22T14:08:58.465Z,96868.00
2023-10-22T14:11:26.529Z,96863.00
2023-10-22T14:13:54.598Z,96859.00
2023-10-22T14:16:21.910Z,96865.00
2023-10-22T14:18:48.934Z,96860.00
2023-10-22T14:21:16.425Z,96859.00
2023-10-22T14:23:43.716Z,96873.00
2023-10-22T14:26:10.548Z,96869.00
2023-10-22T14:28:37.422Z,96878.00
2023-10-22T14:31:08.659Z,96879.00
2023-10-22T14:33:36.098Z,96885.00
2023-10-22T14:36:05.926Z,96871.00
2023-10-22T14:38:33.371Z,96875.00
2023-10-22T14:41:04.118Z,96881.00
2023-10-22T14:43:32.060Z,96886.00
2023-10-22T14:46:03.444Z,96884.00
2023-10-22T14:48:31.512Z,96885.00
2023-10-22T14:51:02.170Z,96880.00
2023-10-22T14:53:30.397Z,96886.00
2023-10-22T14:56:05.079Z,96890.00
2023-10-22T14:58:32.580Z,96892.00
2023-10-22T15:01:03.943Z,96901.00
2023-10-22T15:03:32.072Z,96890.00
2023-10-22T15:05:59.373Z,96907.00
2023-10-22T15:08:26.828Z,96900.00
2023-10-22T15:10:54.710Z,96893.00
2023-10-22T15:13:21.773Z,96906.00
2023-10-22T15:15:48.903Z,96910.00
2023-10-22T15:18:16.783Z,96906.00
2023-10-22T15:20:49.810Z,96907.00
2023-10-22T15:23:17.496Z,96910.00
2023-10-22T15:25:50.877Z,96915.00
2023-10-22T15:28:19.398Z,96908.00
2023-10-22T15:30:47.331Z,96914.00
2023-10-22T15:33:15.544Z,96927.00
2023-10-22T15:35:42.654Z,96916.00
2023-10-22T15:38:11.438Z,96933.00
2023-10-22T15:40:38.425Z,96923.00
2023-10-22T15:43:05.331Z,96926.00
2023-10-22T15:45:32.971Z,96922.00
2023-10-22T15:48:02.445Z,96919.00
2023-10-22T15:50:30.435Z,96918.00
2023-10-22T15:52:57.798Z,96930.00
2023-10-22T15:55:24.966Z,96922.00
2023-10-22T15:57:56.017Z,96917.00
2023-10-22T16:00:23.528Z,96934.00
2023-10-22T16:02:51.171Z,96922.00
2023-10-22T16:05:18.897Z,96934.00
2023-10-22T16:07:46.064Z,96931.00
2023-10-22T16:10:13.681Z,96939.00
2023-10-22T16:12:42.298Z,96942.00
2023-10-22T16:15:13.506Z,96931.00
2023-10-22T16:17:41.782Z,96943.00
2023-10-22T16:20:14.576Z,96932.00
2023-10-22T16:22:41.836Z,96939.00
2023-10-22T16:25:09.304Z,96957.00
2023-10-22T16:27:36.862Z,96930.00
2023-10-22T16:30:04.833Z,96940.00
2023-10-22T16:32:32.279Z,96962.00
2023-10-22T16:34:59.458Z,96956.00
2023-10-22T16:37:26.708Z,96969.00
2023-10-22T16:39:53.571Z,96956.00
2023-10-22T16:42:20.476Z,96960.00
2023-10-22T16:44:52.059Z,96971.00
2023-10-22T16:47:19.687Z,96968.00
2023-10-22T16:49:46.572Z,96971.00
2023-10-22T16:52:13.671Z,96971.00
2023-10-22T16:54:40.640Z,96979.00
2023-10-22T16:57:07.674Z,97001.00
2023-10-22T16:59:34.558Z,96987.00
2023-10-22T17:02:01.580Z,96987.00
2023-10-22T17:04:28.680Z,97008.00
2023-10-22T17:06:55.584Z,97000.00
2023-10-22T17:09:22.561Z,97006.00
2023-10-22T17:11:49.468Z,97000.00
2023-10-22T17:14:16.455Z,97010.00
2023-10-22T17:16:43.437Z,97002.00
2023-10-22T17:19:10.665Z,97016.00
2023-10-22T17:21:37.620Z,97007.00
2023-10-22T17:24:05.209Z,97009.00
2023-10-22T17:26:35.013Z,97014.00
2023-10-22T17:29:02.092Z,97008.00
2023-10-22T17:31:30.219Z,97017.00
2023-10-22T17:34:05.796Z,97022.00
2023-10-22T17:36:33.700Z,97020.00
2023-10-22T17:39:00.790Z,97036.00
2023-10-22T17:41:27.726Z,97026.00
2023-10-22T17:43:54.931Z,97029.00
2023-10-22T17:46:21.937Z,97046.00
2023-10-22T17:48:50.166Z,97042.00
2023-10-22T17:51:17.544Z,97053.00
2023-10-22T17:53:47.944Z,97055.00
2023-10-22T17:56:14.969Z,97054.00
2023-10-22T17:58:43.124Z,97055.00
2023-10-22T18:01:10.443Z,97054.00
2023-10-22T18:03:40.238Z,97056.00
2023-10-22T18:06:07.921Z,97058.00
2023-10-22T18:08:36.531Z,97068.00
2023-10-22T18:11:04.759Z,97061.00
2023-10-22T18:13:32.415Z,97073.00
2023-10-22T18:15:59.750Z,97068.00
2023-10-22T18:18:27.066Z,97062.00
2023-10-22T18:20:55.881Z,97084.00
2023-10-22T18:23:24.198Z,97077.00
2023-10-22T18:26:04.936Z,97079.00
2023-10-22T18:28:33.013Z,97093.00
2023-10-22T18:31:00.193Z,97093.00
2023-10-22T18:33:27.549Z,97083.00
2023-10-22T18:35:55.625Z,97094.00
2023-10-22T18:38:22.540Z,97078.00
2023-10-22T18:40:51.141Z,97081.00
2023-10-22T18:43:18.381Z,97098.00
2023-10-22T18:45:45.446Z,97098.00
2023-10-22T18:48:14.205Z,97109.00
2023-10-22T18:50:41.204Z,97106.00
2023-10-22T18:53:08.455Z,97100.00
2023-10-22T18:55:35.432Z,97091.00
2023-10-22T18:58:02.435Z,97106.00
2023-10-22T19:00:29.470Z,97106.00
2023-10-22T19:02:56.604Z,97110.00
2023-10-22T19:05:23.988Z,97100.00
2023-10-22T19:07:50.833Z,97117.00
2023-10-22T19:10:18.555Z,97099.00
2023-10-22T19:12:45.902Z,97106.00
2023-10-22T19:15:13.573Z,97118.00
2023-10-22T19:17:42.760Z,97110.00
2023-10-22T19:20:10.624Z,97119.00
2023-10-22T19:22:37.972Z,97115.00
2023-10-22T19:25:05.847Z,97119.00
2023-10-22T19:27:36.413Z,97133.00
2023-10-22T19:30:05.556Z,97126.00
2023-10-22T19:32:35.462Z,97128.00
2023-10-22T19:35:02.622Z,97142.00
2023-10-22T19:37:29.539Z,97137.00
2023-10-22T19:39:56.566Z,97137.00
2023-10-22T19:42:25.282Z,97142.00
2023-10-22T19:44:53.786Z,97146.00
2023-10-22T19:47:20.806Z,97161.00
2023-10-22T19:49:47.789Z,97148.00
2023-10-22T19:52:25.792Z,97167.00
2023-10-22T19:55:00.970Z,97175.00
2023-10-22T19:57:27.931Z,97154.00
2023-10-22T19:59:55.525Z,97178.00
2023-10-22T20:02:22.625Z,97163.00
2023-10-22T20:04:49.642Z,97152.00
2023-10-22T20:07:16.647Z,97170.00
2023-10-22T20:09:43.573Z,97183.00
2023-10-22T20:12:10.532Z,97162.00
2023-10-22T20:14:38.139Z,97166.00
2023-10-22T20:17:05.194Z,97171.00
2023-10-22T20:19:32.039Z,97163.00
2023-10-22T20:21:58.892Z,97160.00
2023-10-22T20:24:27.316Z,97170.00
2023-10-22T20:26:54.892Z,97164.00
2023-10-22T20:29:22.573Z,97173.00
2023-10-22T20:31:49.569Z,97176.00
2023-10-22T20:34:18.336Z,97170.00
2023-10-22T20:36:46.130Z,97174.00
2023-10-22T20:39:13.675Z,97169.00
2023-10-22T20:41:40.853Z,97169.00
2023-10-22T20:44:07.714Z,97181.00
2023-10-22T20:46:35.290Z,97179.00
2023-10-22T20:49:02.356Z,97176.00
2023-10-22T20:51:29.355Z,97179.00
2023-10-22T20:53:56.305Z,97180.00
2023-10-22T20:56:23.265Z,97180.00
2023-10-22T20:58:50.321Z,97176.00
2023-10-22T21:01:25.109Z,97183.00
2023-10-22T21:03:57.752Z,97177.00
2023-10-22T21:06:26.378Z,97180.00
2023-10-22T21:08:55.234Z,97187.00
2023-10-22T21:11:22.172Z,97191.00
2023-10-22T21:13:49.076Z,97190.00
2023-10-22T21:16:16.199Z,97190.00
2023-10-22T21:18:43.519Z,97179.00
2023-10-22T21:21:10.661Z,97184.00
2023-10-22T21:23:39.847Z,97180.00
2023-10-22T21:26:07.851Z,97181.00
2023-10-22T21:28:35.035Z,97182.00
2023-10-22T21:31:05.171Z,97184.00
2023-10-22T21:33:32.109Z,97173.00
2023-10-22T21:36:07.925Z,97181.00
2023-10-22T21:38:35.749Z,97189.00
2023-10-22T21:41:02.706Z,97183.00
2023-10-22T21:43:29.570Z,97179.00
2023-10-22T21:46:10.458Z,97169.00
2023-10-22T21:48:39.262Z,97176.00
2023-10-22T21:51:07.198Z,97177.00
2023-10-22T21:53:34.392Z,97184.00
2023-10-22T21:56:01.392Z,97179.00
2023-10-22T21:58:28.377Z,97179.00
2023-10-22T22:00:56.487Z,97179.00
2023-10-22T22:03:23.836Z,97181.00
2023-10-22T22:05:50.839Z,97194.00
2023-10-22T22:08:17.689Z,97193.00
2023-10-22T22:10:44.523Z,97195.00
2023-10-22T22:13:12.097Z,97192.00
2023-10-22T22:15:39.052Z,97196.00
2023-10-22T22:18:06.071Z,97195.00
2023-10-22T22:20:33.040Z,97185.00
2023-10-22T22:22:59.894Z,97192.00
2023-10-22T22:25:41.118Z,97188.00
2023-10-22T22:28:11.797Z,97183.00
2023-10-22T22:30:38.728Z,97198.00
2023-10-22T22:33:05.748Z,97202.00
2023-10-22T22:35:32.709Z,97205.00
2023-10-22T22:37:59.606Z,97204.00
2023-10-22T22:40:26.521Z,97199.00
2023-10-22T22:42:53.408Z,97209.00
2023-10-22T22:45:20.326Z,97203.00
2023-10-22T22:47:47.322Z,97201.00
2023-10-22T22:50:14.236Z,97203.00
2023-10-22T22:52:41.132Z,97204.00
2023-10-22T22:55:08.655Z,97211.00
2023-10-22T22:57:35.984Z,97208.00
2023-10-22T23:00:05.387Z,97207.00
2023-10-22T23:02:34.149Z,97216.00
2023-10-22T23:05:01.531Z,97211.00
2023-10-22T23:07:29.441Z,97216.00
2023-10-22T23:09:56.479Z,97203.00
2023-10-22T23:12:23.544Z,97206.00
2023-10-22T23:14:52.490Z,97201.00
2023-10-22T23:17:19.461Z,97205.00
2023-10-22T23:19:47.001Z,97200.00
2023-10-22T23:22:14.032Z,97218.00
2023-10-22T23:24:40.967Z,97214.00
2023-10-22T23:27:08.125Z,97209.00
2023-10-22T23:29:34.988Z,97221.00
2023-10-22T23:32:01.901Z,97206.00
2023-10-22T23:34:28.803Z,97208.00
2023-10-22T23:36:56.007Z,97208.00
2023-10-22T23:39:23.048Z,97227.00
2023-10-22T23:41:49.982Z,97219.00
2023-10-22T23:44:16.883Z,97230.00
2023-10-22T23:46:43.717Z,97226.00
2023-10-22T23:49:10.633Z,97226.00
2023-10-22T23:51:39.991Z,97225.00
2023-10-22T23:54:07.038Z,97241.00
2023-10-22T23:56:33.867Z,97231.00
2023-10-22T23:59:01.647Z,97238.00
